Time;durP1;ratioP1;P1;durP2;ratioP2;P2;SDS_P1;SDS_P2;PMS_P1;PMS_P2;Temp;Humidity;BMP_temperature;BMP_pressure;BME280_temperature;BME280_humidity;BME280_pressure;Samples;Min_cycle;Max_cycle;Signal;HPM_P1;HPM_P2
2024/01/17 00:02:00;;;;;;;100.70;94.70;;;-0.10;98.60;;;;;;5077996;28;20040;-75
2024/01/17 00:04:27;;;;;;;82.67;77.83;;;-0.10;98.80;;;;;;5062910;28;20039;-75
2024/01/17 00:06:55;;;;;;;162.85;152.98;;;-0.10;98.30;;;;;;5076167;28;20105;-76
2024/01/17 00:09:20;;;;;;;116.90;109.65;;;-0.10;98.60;;;;;;5083457;28;20099;-76
2024/01/17 00:11:47;;;;;;;115.43;108.73;;;-0.20;99.10;;;;;;5061918;28;20032;-76
2024/01/17 00:14:13;;;;;;;231.43;215.32;;;-0.20;99.50;;;;;;5076160;28;20139;-75
2024/01/17 00:16:39;;;;;;;62.00;58.00;;;-0.20;99.20;;;;;;5066653;28;20130;-75
2024/01/17 00:19:05;;;;;;;117.40;110.43;;;-0.10;99.10;;;;;;5078449;28;20083;-75
2024/01/17 00:21:30;;;;;;;73.27;68.80;;;-0.20;99.00;;;;;;5060300;28;20055;-75
2024/01/17 00:23:56;;;;;;;56.97;53.37;;;-0.20;99.30;;;;;;5088242;28;20119;-76
2024/01/17 00:26:22;;;;;;;94.57;88.63;;;-0.10;99.40;;;;;;5077997;28;20037;-76
2024/01/17 00:28:47;;;;;;;72.47;67.80;;;-0.10;99.10;;;;;;5083001;28;20044;-76
2024/01/17 00:31:13;;;;;;;61.60;57.63;;;-0.20;99.30;;;;;;5076280;28;20087;-75
2024/01/17 00:33:39;;;;;;;95.47;89.47;;;-0.20;99.70;;;;;;5057791;28;20043;-75
2024/01/17 00:36:05;;;;;;;127.23;119.40;;;-0.20;99.50;;;;;;5080436;28;20055;-75
2024/01/17 00:38:31;;;;;;;139.40;130.65;;;-0.20;99.50;;;;;;5065437;28;20390;-75
2024/01/17 00:40:57;;;;;;;76.90;72.25;;;-0.20;99.80;;;;;;5058250;28;20584;-75
2024/01/17 00:43:23;;;;;;;83.43;78.25;;;-0.20;99.90;;;;;;5082980;28;20032;-76
2024/01/17 00:45:49;;;;;;;60.90;57.13;;;-0.20;99.90;;;;;;5082242;28;20145;-76
2024/01/17 00:48:15;;;;;;;151.20;141.85;;;-0.20;99.90;;;;;;5058676;28;20036;-76
2024/01/17 00:50:41;;;;;;;80.30;75.53;;;-0.10;99.90;;;;;;5083100;28;20036;-75
2024/01/17 00:53:07;;;;;;;118.50;111.28;;;-0.10;99.90;;;;;;5081045;28;20553;-76
2024/01/17 00:55:33;;;;;;;100.00;93.70;;;-0.20;99.90;;;;;;5084424;28;20039;-76
2024/01/17 00:57:59;;;;;;;63.83;59.53;;;-0.20;99.90;;;;;;5081478;28;20805;-75
2024/01/17 01:00:25;;;;;;;72.57;68.40;;;-0.20;99.80;;;;;;5055035;28;20046;-75
2024/01/17 01:02:53;;;;;;;124.97;117.67;;;-0.20;99.90;;;;;;5059568;28;20037;-75
2024/01/17 01:05:19;;;;;;;180.77;169.07;;;-0.20;99.90;;;;;;5068589;28;20040;-75
2024/01/17 01:07:47;;;;;;;160.20;150.33;;;-0.20;99.60;;;;;;5086089;28;20041;-75
2024/01/17 01:10:13;;;;;;;110.80;104.25;;;-0.10;99.40;;;;;;5086462;28;20036;-75
2024/01/17 01:12:39;;;;;;;119.87;112.97;;;-0.10;99.40;;;;;;5071467;28;20102;-75
2024/01/17 01:15:05;;;;;;;116.97;110.37;;;-0.10;99.30;;;;;;5067796;28;20046;-75
2024/01/17 01:17:31;;;;;;;124.10;116.55;;;-0.10;98.60;;;;;;5082325;28;20036;-76
2024/01/17 01:19:57;;;;;;;123.55;115.05;;;-0.10;99.40;;;;;;5074236;28;20062;-75
2024/01/17 01:22:22;;;;;;;235.57;217.90;;;-0.10;98.90;;;;;;5059843;28;20036;-76
2024/01/17 01:24:49;;;;;;;211.10;195.73;;;-0.10;99.20;;;;;;5080805;28;20440;-76
2024/01/17 01:27:15;;;;;;;93.70;87.80;;;-0.10;98.80;;;;;;5076293;28;20064;-75
2024/01/17 01:29:41;;;;;;;93.60;87.97;;;-0.20;98.60;;;;;;5061634;28;20061;-75
2024/01/17 01:32:07;;;;;;;160.75;151.05;;;-0.20;98.70;;;;;;5064529;28;20293;-75
2024/01/17 01:34:33;;;;;;;113.13;106.50;;;-0.20;98.90;;;;;;5059232;28;20044;-75
2024/01/17 01:37:00;;;;;;;97.60;91.88;;;-0.20;98.80;;;;;;5084242;28;20115;-75
2024/01/17 01:39:26;;;;;;;74.88;70.47;;;-0.20;99.40;;;;;;5066950;28;20051;-75
2024/01/17 01:41:52;;;;;;;106.32;99.80;;;-0.20;99.70;;;;;;5075485;28;20052;-75
2024/01/17 01:44:18;;;;;;;88.13;82.73;;;-0.20;99.90;;;;;;5085235;28;20036;-76
2024/01/17 01:46:45;;;;;;;294.53;271.00;;;-0.20;99.70;;;;;;5058577;28;20032;-76
2024/01/17 01:49:16;;;;;;;123.18;115.82;;;-0.20;99.90;;;;;;5065548;28;20029;-75
2024/01/17 01:51:44;;;;;;;64.80;60.80;;;-0.20;99.90;;;;;;5074132;28;20047;-76
2024/01/17 01:54:13;;;;;;;90.57;84.60;;;-0.30;99.90;;;;;;5077434;28;20040;-75
2024/01/17 01:56:40;;;;;;;168.07;156.73;;;-0.30;99.90;;;;;;5078189;28;20076;-75
2024/01/17 01:59:08;;;;;;;75.30;70.75;;;-0.30;99.90;;;;;;5087571;28;20036;-76
2024/01/17 02:01:34;;;;;;;113.22;106.28;;;-0.30;99.90;;;;;;5086557;28;20178;-75
2024/01/17 02:04:02;;;;;;;79.57;74.50;;;-0.30;99.90;;;;;;5082690;28;20036;-75
2024/01/17 02:06:31;;;;;;;111.40;104.97;;;-0.40;99.90;;;;;;5067354;28;20032;-75
2024/01/17 02:08:59;;;;;;;113.95;107.20;;;-0.40;99.90;;;;;;5087057;28;20044;-75
2024/01/17 02:11:28;;;;;;;65.13;61.05;;;-0.40;99.90;;;;;;5081264;28;20047;-76
2024/01/17 02:13:54;;;;;;;219.93;203.30;;;-0.40;99.90;;;;;;5088493;28;20113;-75
2024/01/17 02:16:20;;;;;;;129.88;121.80;;;-0.50;99.90;;;;;;5068070;28;20048;-75
2024/01/17 02:18:47;;;;;;;93.47;87.40;;;-0.50;99.90;;;;;;5081037;28;20109;-76
2024/01/17 02:21:12;;;;;;;124.45;116.75;;;-0.50;99.90;;;;;;5069163;28;20139;-76
2024/01/17 02:23:38;;;;;;;58.13;54.27;;;-0.50;99.90;;;;;;5070608;28;20183;-75
2024/01/17 02:26:04;;;;;;;94.37;88.90;;;-0.50;99.90;;;;;;5082020;28;20064;-76
2024/01/17 02:28:31;;;;;;;70.03;65.77;;;-0.50;99.90;;;;;;5063873;28;20040;-75
2024/01/17 02:30:58;;;;;;;100.60;94.40;;;-0.50;99.90;;;;;;5078797;28;20120;-76
2024/01/17 02:33:24;;;;;;;138.00;129.50;;;-0.50;99.90;;;;;;5080512;28;20424;-76
2024/01/17 02:35:50;;;;;;;138.55;130.10;;;-0.50;99.90;;;;;;5083327;28;20445;-75
2024/01/17 02:38:16;;;;;;;104.50;97.83;;;-0.50;99.90;;;;;;5080041;28;20032;-76
2024/01/17 02:40:41;;;;;;;82.27;77.10;;;-0.40;99.90;;;;;;5059034;28;20039;-74
2024/01/17 02:43:07;;;;;;;117.23;109.87;;;-0.40;99.90;;;;;;5083003;28;20083;-76
2024/01/17 02:45:33;;;;;;;102.37;95.90;;;-0.40;99.90;;;;;;5059630;28;20441;-75
2024/01/17 02:47:59;;;;;;;128.83;120.67;;;-0.40;99.90;;;;;;5080261;28;20539;-75
2024/01/17 02:50:26;;;;;;;123.10;115.40;;;-0.40;99.90;;;;;;5072037;28;20036;-75
2024/01/17 02:52:54;;;;;;;68.40;64.15;;;-0.40;99.90;;;;;;5060108;28;20041;-76
2024/01/17 02:55:22;;;;;;;78.43;73.35;;;-0.40;99.90;;;;;;5055176;28;20044;-76
2024/01/17 02:57:49;;;;;;;75.32;70.60;;;-0.40;99.90;;;;;;5068332;28;20051;-76
2024/01/17 03:00:15;;;;;;;100.43;93.75;;;-0.40;99.90;;;;;;5079007;28;20048;-76
2024/01/17 03:02:41;;;;;;;69.18;64.85;;;-0.40;99.90;;;;;;5083517;28;20032;-76
2024/01/17 03:05:07;;;;;;;82.90;77.67;;;-0.40;99.90;;;;;;5059695;28;20035;-76
2024/01/17 03:07:33;;;;;;;99.53;92.72;;;-0.40;99.90;;;;;;5065435;28;20033;-76
2024/01/17 03:09:59;;;;;;;59.73;55.70;;;-0.40;99.90;;;;;;5074583;28;20031;-75
2024/01/17 03:12:25;;;;;;;61.07;56.60;;;-0.40;99.90;;;;;;5075360;28;20475;-76
2024/01/17 03:14:51;;;;;;;67.72;63.20;;;-0.40;99.90;;;;;;5080538;28;20387;-75
2024/01/17 03:17:17;;;;;;;73.10;68.47;;;-0.40;99.90;;;;;;5056446;28;20074;-76
2024/01/17 03:19:44;;;;;;;92.70;86.57;;;-0.40;99.90;;;;;;5083498;28;20506;-76
2024/01/17 03:22:10;;;;;;;61.28;57.05;;;-0.40;99.90;;;;;;5076080;28;20460;-76
2024/01/17 03:24:39;;;;;;;44.80;41.57;;;-0.40;99.90;;;;;;5072985;28;20036;-75
2024/01/17 03:27:05;;;;;;;116.22;108.38;;;-0.40;99.90;;;;;;5072597;28;20036;-75
2024/01/17 03:29:31;;;;;;;62.57;58.73;;;-0.40;99.90;;;;;;5069645;28;20089;-76
2024/01/17 03:31:56;;;;;;;50.73;47.13;;;-0.50;99.90;;;;;;5067126;28;20032;-76
2024/01/17 03:34:22;;;;;;;79.03;74.03;;;-0.50;99.90;;;;;;5065829;28;20110;-76
2024/01/17 03:36:48;;;;;;;147.33;137.30;;;-0.40;99.90;;;;;;5064760;28;20541;-76
2024/01/17 03:39:14;;;;;;;93.10;86.47;;;-0.40;99.90;;;;;;5077037;28;20048;-76
2024/01/17 03:41:40;;;;;;;58.27;54.07;;;-0.40;99.90;;;;;;5078726;28;20568;-76
2024/01/17 03:44:06;;;;;;;44.23;41.13;;;-0.40;99.90;;;;;;5085190;28;20421;-75
2024/01/17 03:46:31;;;;;;;62.75;58.47;;;-0.40;99.90;;;;;;5081194;28;20283;-76
2024/01/17 03:48:57;;;;;;;76.83;71.90;;;-0.40;99.90;;;;;;5054883;28;20044;-76
2024/01/17 03:51:23;;;;;;;108.97;102.37;;;-0.40;99.90;;;;;;5087933;28;20032;-76
2024/01/17 03:53:49;;;;;;;93.20;86.87;;;-0.30;99.90;;;;;;5082730;28;20059;-76
2024/01/17 03:56:15;;;;;;;85.37;79.83;;;-0.30;99.90;;;;;;5057994;28;20045;-76
2024/01/17 03:58:41;;;;;;;67.30;62.72;;;-0.30;99.90;;;;;;5084971;28;20040;-76
2024/01/17 04:01:10;;;;;;;84.18;78.30;;;-0.40;99.90;;;;;;5076366;28;20053;-76
2024/01/17 04:03:36;;;;;;;79.63;74.68;;;-0.30;99.90;;;;;;5085322;28;20122;-76
2024/01/17 04:06:03;;;;;;;166.07;152.43;;;-0.40;99.90;;;;;;5081585;28;20171;-75
2024/01/17 04:08:29;;;;;;;71.78;67.18;;;-0.40;99.90;;;;;;5064644;28;20118;-75
2024/01/17 04:10:55;;;;;;;49.60;45.95;;;-0.40;99.90;;;;;;5080575;28;20036;-75
2024/01/17 04:13:20;;;;;;;51.93;47.77;;;-0.40;99.90;;;;;;5086363;28;20520;-76
2024/01/17 04:15:46;;;;;;;60.57;56.27;;;-0.40;99.90;;;;;;5073339;28;20080;-76
2024/01/17 04:18:12;;;;;;;90.90;85.20;;;-0.40;99.90;;;;;;5077199;28;20036;-75
2024/01/17 04:20:38;;;;;;;86.77;81.17;;;-0.40;99.90;;;;;;5068681;28;20052;-76
2024/01/17 04:23:04;;;;;;;125.43;117.23;;;-0.40;99.90;;;;;;5064464;28;20406;-76
2024/01/17 04:25:30;;;;;;;68.35;63.72;;;-0.40;99.90;;;;;;5075896;28;20055;-75
2024/01/17 04:27:56;;;;;;;90.33;84.47;;;-0.40;99.90;;;;;;5078337;28;20040;-75
2024/01/17 04:30:22;;;;;;;188.23;175.95;;;-0.40;99.90;;;;;;5073803;28;20495;-76
2024/01/17 04:32:48;;;;;;;91.73;85.70;;;-0.50;99.90;;;;;;5071391;28;20043;-74
2024/01/17 04:35:18;;;;;;;93.10;86.83;;;-0.50;99.90;;;;;;5063965;28;20032;-76
2024/01/17 04:37:44;;;;;;;75.13;70.05;;;-0.50;99.90;;;;;;5067054;28;20043;-75
2024/01/17 04:40:10;;;;;;;68.67;63.97;;;-0.50;99.90;;;;;;5075534;28;20072;-76
2024/01/17 04:42:36;;;;;;;79.68;74.40;;;-0.50;99.90;;;;;;5078440;28;20117;-75
2024/01/17 04:45:03;;;;;;;81.17;76.30;;;-0.50;99.90;;;;;;5073869;28;20032;-76
2024/01/17 04:47:29;;;;;;;55.72;51.75;;;-0.60;99.90;;;;;;5061905;28;20394;-76
2024/01/17 04:49:54;;;;;;;101.57;95.37;;;-0.60;99.90;;;;;;5083449;28;20036;-75
2024/01/17 04:52:20;;;;;;;67.60;63.03;;;-0.60;99.90;;;;;;5073682;28;20039;-76
2024/01/17 04:54:46;;;;;;;59.23;55.17;;;-0.60;99.90;;;;;;5080988;28;20516;-76
2024/01/17 04:57:12;;;;;;;72.67;67.73;;;-0.60;99.90;;;;;;5068270;28;20044;-76
2024/01/17 04:59:38;;;;;;;99.80;93.30;;;-0.60;99.90;;;;;;5061429;28;20051;-76
2024/01/17 05:02:04;;;;;;;107.27;100.63;;;-0.60;99.90;;;;;;5062058;28;20036;-75
2024/01/17 05:04:30;;;;;;;84.50;78.57;;;-0.70;99.90;;;;;;5081561;28;20086;-76
2024/01/17 05:06:56;;;;;;;62.10;57.80;;;-0.70;99.90;;;;;;5079305;28;20036;-76
2024/01/17 05:09:22;;;;;;;88.07;82.50;;;-0.70;99.90;;;;;;5060024;28;20090;-76
2024/01/17 05:11:48;;;;;;;58.63;54.40;;;-0.70;99.90;;;;;;5070832;28;20397;-75
2024/01/17 05:14:16;;;;;;;93.50;87.23;;;-0.70;99.90;;;;;;5061934;28;20040;-76
2024/01/17 05:16:42;;;;;;;101.40;94.97;;;-0.80;99.90;;;;;;5077979;28;20036;-76
2024/01/17 05:19:08;;;;;;;91.80;85.77;;;-0.80;99.90;;;;;;5080312;28;20406;-76
2024/01/17 05:21:34;;;;;;;99.25;92.57;;;-0.90;99.90;;;;;;5083181;28;21087;-76
2024/01/17 05:24:00;;;;;;;68.37;63.70;;;-0.90;99.90;;;;;;5076205;28;20494;-76
2024/01/17 05:26:25;;;;;;;78.23;72.93;;;-0.90;99.90;;;;;;5065129;28;20029;-76
2024/01/17 05:28:51;;;;;;;86.30;80.80;;;-1.00;99.90;;;;;;5081464;28;20075;-76
2024/01/17 05:31:17;;;;;;;116.38;108.72;;;-1.00;99.90;;;;;;5085439;28;20039;-76
2024/01/17 05:33:44;;;;;;;61.63;57.17;;;-1.10;99.90;;;;;;5064019;28;20032;-76
2024/01/17 05:36:09;;;;;;;78.00;72.55;;;-1.10;99.90;;;;;;5067863;28;20040;-75
2024/01/17 05:38:35;;;;;;;88.30;82.63;;;-1.10;99.90;;;;;;5079072;28;20048;-76
2024/01/17 05:41:01;;;;;;;105.10;98.43;;;-1.10;99.90;;;;;;5066506;28;20410;-75
2024/01/17 05:43:27;;;;;;;79.00;73.87;;;-1.20;99.90;;;;;;5081437;28;20123;-76
2024/01/17 05:45:52;;;;;;;66.37;61.60;;;-1.30;99.90;;;;;;5062296;28;20048;-76
2024/01/17 05:48:18;;;;;;;70.47;65.67;;;-1.30;99.90;;;;;;5065414;28;20087;-76
2024/01/17 05:50:45;;;;;;;73.70;68.90;;;-1.40;99.90;;;;;;5071151;28;20040;-76
2024/01/17 05:53:11;;;;;;;90.20;83.95;;;-1.40;99.90;;;;;;5074644;28;20040;-76
2024/01/17 05:55:37;;;;;;;90.25;84.05;;;-1.40;99.90;;;;;;5086866;28;20039;-76
2024/01/17 05:58:02;;;;;;;87.93;82.25;;;-1.50;99.90;;;;;;5081066;28;20172;-76
2024/01/17 06:00:28;;;;;;;96.40;89.97;;;-1.50;99.90;;;;;;5080610;28;20044;-76
2024/01/17 06:02:54;;;;;;;99.87;93.30;;;-1.50;99.90;;;;;;5070228;28;20048;-75
2024/01/17 06:05:20;;;;;;;98.67;92.27;;;-1.50;99.90;;;;;;5076379;28;20068;-76
2024/01/17 06:07:46;;;;;;;91.80;85.77;;;-1.60;99.90;;;;;;5081849;28;20114;-75
2024/01/17 06:10:13;;;;;;;83.00;77.43;;;-1.60;99.90;;;;;;5077809;28;20822;-76
2024/01/17 06:12:42;;;;;;;67.97;63.30;;;-1.60;99.90;;;;;;5075011;28;20044;-76
2024/01/17 06:15:09;;;;;;;93.68;87.53;;;-1.60;99.90;;;;;;5074411;28;20119;-75
2024/01/17 06:17:36;;;;;;;46.63;43.08;;;-1.70;99.90;;;;;;5061174;28;20458;-76
2024/01/17 06:20:03;;;;;;;77.30;71.70;;;-1.60;99.90;;;;;;5056933;28;20494;-76
2024/01/17 06:22:29;;;;;;;57.97;53.45;;;-1.60;99.90;;;;;;5075341;28;20489;-76
2024/01/17 06:24:54;;;;;;;82.80;77.50;;;-1.60;99.90;;;;;;5078176;28;20042;-76
2024/01/17 06:27:20;;;;;;;57.87;53.43;;;-1.60;99.90;;;;;;5081635;28;20047;-76
2024/01/17 06:29:46;;;;;;;74.67;69.77;;;-1.60;99.90;;;;;;5064486;28;20123;-75
2024/01/17 06:32:13;;;;;;;163.90;153.63;;;-1.60;99.90;;;;;;5066013;28;20402;-76
2024/01/17 06:34:39;;;;;;;110.72;103.82;;;-1.60;99.90;;;;;;5087036;28;20508;-76
2024/01/17 06:37:05;;;;;;;47.05;43.25;;;-1.60;99.90;;;;;;5069086;28;20494;-76
2024/01/17 06:39:31;;;;;;;74.38;69.60;;;-1.60;99.90;;;;;;5072774;28;20036;-75
2024/01/17 06:41:58;;;;;;;72.90;67.93;;;-1.70;99.90;;;;;;5058504;28;20123;-76
2024/01/17 06:44:25;;;;;;;91.78;85.78;;;-1.70;99.90;;;;;;5066123;28;20047;-75
2024/01/17 06:46:51;;;;;;;86.35;80.60;;;-1.80;99.90;;;;;;5068504;28;20505;-76
2024/01/17 06:49:17;;;;;;;80.97;75.63;;;-1.70;99.90;;;;;;5066383;28;20040;-75
2024/01/17 06:51:43;;;;;;;110.70;103.47;;;-1.70;99.90;;;;;;5087355;28;20120;-76
2024/01/17 06:54:09;;;;;;;71.87;66.77;;;-1.80;99.90;;;;;;5070976;28;20123;-76
2024/01/17 06:56:36;;;;;;;71.28;66.38;;;-1.80;99.90;;;;;;5090870;28;20040;-76
2024/01/17 06:59:02;;;;;;;78.53;73.45;;;-1.80;99.90;;;;;;5061969;28;20032;-76
2024/01/17 07:01:28;;;;;;;54.28;49.95;;;-1.90;99.90;;;;;;5082258;28;20461;-76
2024/01/17 07:03:54;;;;;;;77.82;72.38;;;-1.90;99.90;;;;;;5073771;28;20039;-76
2024/01/17 07:06:20;;;;;;;116.63;109.07;;;-2.00;99.90;;;;;;5055316;28;20055;-76
2024/01/17 07:08:46;;;;;;;71.00;65.67;;;-2.00;99.90;;;;;;5086300;28;20051;-76
2024/01/17 07:11:12;;;;;;;60.22;55.92;;;-2.10;99.90;;;;;;5080272;28;20047;-76
2024/01/17 07:13:38;;;;;;;60.17;55.67;;;-2.20;99.90;;;;;;5081267;28;20032;-76
2024/01/17 07:16:05;;;;;;;80.03;74.53;;;-2.20;99.90;;;;;;5065268;28;20386;-76
2024/01/17 07:18:33;;;;;;;72.10;66.88;;;-2.30;99.90;;;;;;5078151;28;20097;-75
2024/01/17 07:20:59;;;;;;;76.85;71.55;;;-2.30;99.90;;;;;;5056408;28;20036;-76
2024/01/17 07:23:25;;;;;;;51.88;48.22;;;-2.30;99.90;;;;;;5082175;28;20036;-75
2024/01/17 07:25:50;;;;;;;96.13;89.63;;;-2.30;99.90;;;;;;5056790;28;20498;-75
2024/01/17 07:28:19;;;;;;;67.65;62.97;;;-2.40;99.90;;;;;;5078766;28;20048;-75
2024/01/17 07:30:44;;;;;;;109.10;102.20;;;-2.40;99.90;;;;;;5079983;28;20089;-75
2024/01/17 07:33:10;;;;;;;73.00;68.10;;;-2.30;99.90;;;;;;5083147;28;20380;-76
2024/01/17 07:35:36;;;;;;;77.77;72.50;;;-2.30;99.90;;;;;;5085205;28;20150;-76
2024/01/17 07:38:02;;;;;;;67.67;62.87;;;-2.30;99.90;;;;;;5062331;28;20040;-76
2024/01/17 07:40:28;;;;;;;98.80;91.75;;;-2.30;99.90;;;;;;5085582;28;20047;-76
2024/01/17 07:42:54;;;;;;;63.57;58.97;;;-2.30;99.90;;;;;;5064709;28;20040;-76
2024/01/17 07:45:21;;;;;;;72.43;67.37;;;-2.30;99.90;;;;;;5070508;28;20072;-75
2024/01/17 07:47:47;;;;;;;71.63;66.75;;;-2.30;99.90;;;;;;5062599;28;20082;-76
2024/01/17 07:50:13;;;;;;;73.95;68.57;;;-2.30;99.90;;;;;;5087045;28;20119;-76
2024/01/17 07:52:40;;;;;;;79.23;74.30;;;-2.30;99.90;;;;;;5081483;28;20127;-75
2024/01/17 07:55:06;;;;;;;58.72;54.60;;;-2.30;99.90;;;;;;5060840;28;20286;-75
2024/01/17 07:57:31;;;;;;;54.13;50.15;;;-2.30;99.90;;;;;;5075808;28;20137;-75
2024/01/17 07:59:57;;;;;;;51.13;47.20;;;-2.30;99.90;;;;;;5056728;28;20477;-75
2024/01/17 08:02:23;;;;;;;65.63;61.40;;;-2.30;99.90;;;;;;5080009;28;20067;-75
2024/01/17 08:04:52;;;;;;;53.37;49.30;;;-2.20;99.90;;;;;;5078648;28;20081;-75
2024/01/17 08:07:24;;;;;;;52.20;48.47;;;-2.20;99.90;;;;;;5068071;28;20131;-75
2024/01/17 08:09:51;;;;;;;77.88;72.65;;;-2.10;99.90;;;;;;5065786;28;20131;-75
2024/01/17 08:12:17;;;;;;;59.53;55.25;;;-2.10;99.90;;;;;;5080886;28;20047;-75
2024/01/17 08:14:42;;;;;;;50.17;46.40;;;-2.00;99.90;;;;;;5075212;28;20040;-75
2024/01/17 08:17:08;;;;;;;47.40;43.50;;;-1.90;99.90;;;;;;5077421;28;20044;-75
2024/01/17 08:19:34;;;;;;;70.37;65.80;;;-1.90;99.90;;;;;;5069875;28;20660;-75
2024/01/17 08:22:01;;;;;;;66.23;61.80;;;-1.80;99.90;;;;;;5053882;28;20535;-76
2024/01/17 08:24:27;;;;;;;55.85;51.50;;;-1.80;99.90;;;;;;5060471;28;20580;-75
2024/01/17 08:26:52;;;;;;;62.27;57.50;;;-1.70;99.90;;;;;;5074026;28;20047;-75
2024/01/17 08:29:18;;;;;;;57.47;53.10;;;-1.70;99.90;;;;;;5089859;28;20270;-76
2024/01/17 08:31:44;;;;;;;74.82;69.82;;;-1.70;99.90;;;;;;5067782;28;20032;-75
2024/01/17 08:34:11;;;;;;;170.07;158.30;;;-1.60;99.90;;;;;;5073610;28;20041;-76
2024/01/17 08:36:37;;;;;;;74.40;69.40;;;-1.60;99.90;;;;;;5059223;28;20067;-76
2024/01/17 08:39:05;;;;;;;108.63;101.88;;;-1.60;99.90;;;;;;5053383;28;20045;-75
2024/01/17 08:41:31;;;;;;;52.63;48.60;;;-1.60;99.90;;;;;;5073060;28;20120;-75
2024/01/17 08:43:56;;;;;;;60.60;56.50;;;-1.70;99.90;;;;;;5056254;28;20115;-76
2024/01/17 08:46:22;;;;;;;48.70;44.63;;;-1.70;99.90;;;;;;5073269;28;20477;-75
2024/01/17 08:48:48;;;;;;;80.27;74.90;;;-1.70;99.90;;;;;;5062983;28;20090;-75
2024/01/17 08:51:14;;;;;;;172.77;161.77;;;-1.70;99.90;;;;;;5070636;28;20088;-75
2024/01/17 08:53:39;;;;;;;76.07;70.97;;;-1.60;99.90;;;;;;5072857;28;20032;-75
2024/01/17 08:56:05;;;;;;;82.30;76.37;;;-1.60;99.90;;;;;;5073485;28;20036;-75
2024/01/17 08:58:32;;;;;;;81.53;76.00;;;-1.60;99.90;;;;;;5072497;28;20115;-75
2024/01/17 09:00:58;;;;;;;78.40;73.15;;;-1.60;99.90;;;;;;5055899;28;20036;-75
2024/01/17 09:03:24;;;;;;;46.10;42.13;;;-1.60;99.90;;;;;;5053316;28;20048;-75
2024/01/17 09:05:49;;;;;;;62.30;57.85;;;-1.60;99.90;;;;;;5052031;28;20036;-75
2024/01/17 09:08:16;;;;;;;58.00;53.77;;;-1.60;99.90;;;;;;5069138;28;20117;-75
2024/01/17 09:10:42;;;;;;;62.60;58.15;;;-1.50;99.90;;;;;;5061795;28;20508;-75
2024/01/17 09:13:09;;;;;;;72.78;67.93;;;-1.50;99.90;;;;;;5072168;28;20040;-75
2024/01/17 09:15:35;;;;;;;54.50;50.55;;;-1.40;99.90;;;;;;5054907;28;20499;-76
2024/01/17 09:18:01;;;;;;;71.53;66.70;;;-1.40;99.90;;;;;;5076887;28;20044;-75
2024/01/17 09:20:27;;;;;;;44.27;40.80;;;-1.40;99.90;;;;;;5077556;28;20063;-76
2024/01/17 09:22:53;;;;;;;53.28;49.58;;;-1.40;99.90;;;;;;5074228;28;20704;-76
2024/01/17 09:25:19;;;;;;;92.03;86.30;;;-1.30;99.90;;;;;;5078922;28;20063;-75
2024/01/17 09:27:45;;;;;;;57.63;53.63;;;-1.30;99.90;;;;;;5072237;28;20404;-75
2024/01/17 09:30:11;;;;;;;69.17;64.40;;;-1.30;99.90;;;;;;5083384;28;20032;-75
2024/01/17 09:32:37;;;;;;;56.88;52.72;;;-1.20;99.90;;;;;;5078602;28;20048;-75
2024/01/17 09:35:04;;;;;;;48.83;45.27;;;-1.20;99.90;;;;;;5086410;28;20102;-75
2024/01/17 09:37:30;;;;;;;51.90;48.28;;;-1.10;99.90;;;;;;5062562;28;20131;-75
2024/01/17 09:39:56;;;;;;;58.80;55.10;;;-1.10;99.90;;;;;;5079978;28;20118;-75
2024/01/17 09:42:22;;;;;;;60.93;56.73;;;-1.10;99.90;;;;;;5086686;28;20355;-75
2024/01/17 09:44:48;;;;;;;99.60;93.53;;;-1.00;99.90;;;;;;5083774;28;20043;-76
2024/01/17 09:47:17;;;;;;;62.20;57.87;;;-1.00;99.90;;;;;;5065117;28;20083;-75
2024/01/17 09:49:44;;;;;;;64.72;60.30;;;-1.00;99.90;;;;;;5075431;28;20486;-75
2024/01/17 09:52:13;;;;;;;104.68;97.72;;;-0.90;99.90;;;;;;5075365;28;20454;-76
2024/01/17 09:54:45;;;;;;;82.68;77.60;;;-0.90;99.90;;;;;;5076562;28;20044;-75
2024/01/17 09:57:20;;;;;;;93.78;87.75;;;-0.80;99.90;;;;;;5072888;28;20498;-76
2024/01/17 09:59:50;;;;;;;68.50;64.03;;;-0.80;99.90;;;;;;5057951;28;20445;-75
2024/01/17 10:02:18;;;;;;;62.28;58.08;;;-0.80;99.90;;;;;;5076430;28;20106;-75
2024/01/17 10:04:46;;;;;;;58.72;55.00;;;-0.80;99.90;;;;;;5067946;28;20044;-75
2024/01/17 10:07:12;;;;;;;58.53;54.55;;;-0.70;99.90;;;;;;5062567;28;20085;-75
2024/01/17 10:09:39;;;;;;;78.78;73.97;;;-0.70;99.90;;;;;;5079309;28;20410;-75
2024/01/17 10:12:05;;;;;;;57.65;53.85;;;-0.70;99.90;;;;;;5073688;28;20074;-76
2024/01/17 10:14:31;;;;;;;76.05;71.18;;;-0.70;99.90;;;;;;5058330;28;20072;-76
2024/01/17 10:16:57;;;;;;;87.43;82.10;;;-0.70;99.90;;;;;;5065158;28;20075;-76
2024/01/17 10:19:24;;;;;;;66.90;62.58;;;-0.60;99.90;;;;;;5065862;28;20040;-76
2024/01/17 10:21:50;;;;;;;63.15;59.05;;;-0.60;99.90;;;;;;5062056;28;20060;-76
2024/01/17 10:24:16;;;;;;;53.17;49.27;;;-0.50;99.90;;;;;;5072449;28;20032;-76
2024/01/17 10:26:43;;;;;;;57.03;52.93;;;-0.40;99.90;;;;;;5078448;28;20043;-75
2024/01/17 10:29:12;;;;;;;44.65;41.22;;;-0.30;99.90;;;;;;5058876;28;20032;-75
2024/01/17 10:31:39;;;;;;;130.55;122.72;;;-0.30;99.90;;;;;;5076156;28;20041;-76
2024/01/17 10:34:05;;;;;;;55.85;52.05;;;-0.20;99.90;;;;;;5053813;28;20043;-77
2024/01/17 10:36:31;;;;;;;81.30;76.40;;;-0.20;99.40;;;;;;5055142;28;20048;-76
2024/01/17 10:39:06;;;;;;;54.67;51.27;;;-0.10;99.90;;;;;;5054552;28;20106;-76
2024/01/17 10:41:32;;;;;;;47.70;44.40;;;0.00;99.90;;;;;;5076094;28;20098;-76
2024/01/17 10:44:04;;;;;;;73.93;69.38;;;0.00;99.70;;;;;;5058014;28;20270;-76
2024/01/17 10:46:30;;;;;;;60.95;57.15;;;0.10;99.60;;;;;;5079137;28;20047;-76
2024/01/17 10:48:58;;;;;;;93.78;88.43;;;0.20;98.50;;;;;;5081388;28;20032;-76
2024/01/17 10:51:24;;;;;;;76.63;72.07;;;0.20;98.10;;;;;;5073760;28;20072;-76
2024/01/17 10:53:54;;;;;;;85.32;80.07;;;0.20;98.50;;;;;;5059749;28;20040;-77
2024/01/17 10:56:20;;;;;;;46.72;43.30;;;0.30;99.20;;;;;;5067327;28;20402;-76
2024/01/17 10:58:51;;;;;;;59.78;55.92;;;0.30;96.70;;;;;;5069248;28;20094;-76
2024/01/17 11:01:34;;;;;;;36.40;33.65;;;0.40;96.60;;;;;;5085308;28;20508;-76
2024/01/17 11:04:11;;;;;;;55.20;51.75;;;0.40;97.50;;;;;;5057066;28;20028;-75
2024/01/17 11:06:37;;;;;;;52.80;49.20;;;0.40;96.20;;;;;;5073049;28;20103;-76
2024/01/17 11:09:06;;;;;;;91.18;85.47;;;0.40;96.10;;;;;;5085372;28;20441;-76
2024/01/17 11:11:33;;;;;;;64.07;59.92;;;0.40;96.40;;;;;;5055739;28;20040;-76
2024/01/17 11:14:00;;;;;;;61.65;57.72;;;0.40;95.80;;;;;;5072824;28;20052;-76
2024/01/17 11:16:28;;;;;;;53.10;49.67;;;0.50;96.00;;;;;;5077962;28;20032;-76
2024/01/17 11:18:56;;;;;;;57.47;53.75;;;0.50;96.40;;;;;;5063379;28;20308;-76
2024/01/17 11:21:23;;;;;;;74.25;69.53;;;0.50;96.30;;;;;;5062616;28;20060;-77
2024/01/17 11:23:59;;;;;;;60.03;56.50;;;0.50;95.00;;;;;;5080864;28;20074;-76
2024/01/17 11:26:33;;;;;;;64.05;60.15;;;0.40;95.20;;;;;;5079542;28;20047;-76
2024/01/17 11:29:13;;;;;;;121.82;114.75;;;0.40;95.80;;;;;;5055166;28;20043;-76
2024/01/17 11:32:04;;;;;;;57.45;53.85;;;0.40;96.40;;;;;;5072402;28;20048;-77
2024/01/17 11:34:30;;;;;;;109.85;102.15;;;0.30;97.30;;;;;;5063234;28;20044;-76
2024/01/17 11:36:55;;;;;;;79.27;74.23;;;0.30;96.50;;;;;;5072327;28;20516;-76
2024/01/17 11:39:24;;;;;;;102.20;95.97;;;0.30;96.60;;;;;;5072897;28;20304;-76
2024/01/17 11:41:50;;;;;;;64.47;60.38;;;0.30;96.30;;;;;;5071087;28;20512;-76
2024/01/17 11:44:18;;;;;;;56.03;52.37;;;0.40;96.70;;;;;;5084829;28;20072;-77
2024/01/17 11:46:53;;;;;;;58.63;55.15;;;0.40;95.70;;;;;;5067718;28;20028;-76
2024/01/17 11:49:41;;;;;;;96.45;90.53;;;0.50;96.70;;;;;;5078514;28;20041;-75
2024/01/17 11:52:37;;;;;;;93.03;87.63;;;0.50;96.00;;;;;;5062495;28;20041;-77
2024/01/17 11:55:05;;;;;;;61.53;57.95;;;0.40;96.10;;;;;;5068863;28;20040;-77
2024/01/17 11:57:36;;;;;;;110.57;103.93;;;0.40;95.90;;;;;;5078365;28;20054;-77
2024/01/17 12:00:11;;;;;;;95.30;89.63;;;0.30;96.30;;;;;;5059804;28;20044;-77
2024/01/17 12:02:42;;;;;;;91.65;86.10;;;0.20;96.30;;;;;;5078219;28;20036;-76
2024/01/17 12:05:10;;;;;;;83.03;78.13;;;0.10;95.80;;;;;;5077179;28;20040;-76
2024/01/17 12:07:44;;;;;;;81.18;76.15;;;0.00;96.40;;;;;;5092063;28;20039;-76
2024/01/17 12:10:11;;;;;;;103.53;97.57;;;-0.10;96.50;;;;;;5078588;28;20039;-76
2024/01/17 12:12:40;;;;;;;55.88;51.95;;;-0.20;97.40;;;;;;5076279;28;20040;-75
2024/01/17 12:15:06;;;;;;;51.33;48.08;;;-0.20;98.80;;;;;;5090928;28;20517;-77
2024/01/17 12:17:40;;;;;;;58.33;54.15;;;-0.30;99.90;;;;;;5089829;28;20139;-77
2024/01/17 12:20:07;;;;;;;57.80;54.13;;;-0.30;99.90;;;;;;5076306;28;20052;-75
2024/01/17 12:22:34;;;;;;;36.78;34.05;;;-0.40;99.90;;;;;;5063879;28;20113;-77